createdAt,value
2023-05-22T05:48:05.517Z,100771.28
2023-05-22T05:53:04.221Z,100775.31
2023-05-22T05:57:58.342Z,100782.25
2023-05-22T06:03:01.672Z,100667.34
2023-05-22T06:08:13.704Z,100790.78
2023-05-22T06:13:14.522Z,100750.13
2023-05-22T06:18:32.436Z,100789.84
2023-05-22T06:23:28.282Z,100669.53
2023-05-22T06:28:22.704Z,100739.38
2023-05-22T06:33:15.145Z,100805.19
2023-05-22T06:38:08.392Z,100721.97
2023-05-22T06:43:01.823Z,100685.22
2023-05-22T06:48:21.332Z,100773.41
2023-05-22T06:53:31.053Z,100812.28
2023-05-22T06:58:24.692Z,100797.88
2023-05-22T07:03:22.955Z,100830.31
2023-05-22T07:08:38.595Z,100835.50
2023-05-22T07:13:32.445Z,100814.34
2023-05-22T07:18:26.335Z,100724.66
2023-05-22T07:23:23.775Z,100848.25
2023-05-22T07:28:18.457Z,100836.03
2023-05-22T07:33:18.178Z,100813.66
2023-05-22T07:38:10.591Z,100816.50
2023-05-22T07:43:06.388Z,100847.56
2023-05-22T07:48:02.844Z,100844.28
2023-05-22T07:53:02.658Z,100798.38
2023-05-22T07:58:00.774Z,100803.16
2023-05-22T08:03:00.245Z,100800.97
2023-05-22T08:07:52.444Z,100832.44
2023-05-22T08:12:46.551Z,100853.59
2023-05-22T08:17:38.833Z,100815.25
2023-05-22T08:22:31.892Z,100826.28
2023-05-22T08:27:25.754Z,100820.91
2023-05-22T08:32:19.132Z,100865.94
2023-05-22T08:37:15.386Z,100865.97
2023-05-22T08:42:12.024Z,100817.84
2023-05-22T08:47:10.095Z,100863.09
2023-05-22T08:52:21.950Z,100866.38
2023-05-22T08:57:16.605Z,100819.50
2023-05-22T09:02:09.982Z,100784.63
2023-05-22T09:07:06.259Z,100877.81
2023-05-22T09:11:58.517Z,100766.03
2023-05-22T09:16:59.120Z,100721.09
2023-05-22T09:22:02.407Z,100765.47
2023-05-22T09:26:54.709Z,100885.28
2023-05-22T09:31:49.458Z,100888.34
2023-05-22T09:36:43.232Z,100890.03
2023-05-22T09:41:41.306Z,100885.16
2023-05-22T09:46:40.347Z,100804.38
2023-05-22T09:51:35.076Z,100894.13
2023-05-22T09:56:38.447Z,100830.69
2023-05-22T10:01:36.000Z,100839.00
2023-05-22T10:06:30.528Z,100747.91
2023-05-22T10:11:25.208Z,100743.28
2023-05-22T10:16:18.582Z,100834.25
2023-05-22T10:21:12.508Z,100727.47
2023-05-22T10:26:07.757Z,100739.63
2023-05-22T10:31:13.375Z,100900.59
2023-05-22T10:36:14.233Z,100846.06
2023-05-22T10:41:09.971Z,100894.28
2023-05-22T10:46:11.623Z,100900.34
2023-05-22T10:51:08.302Z,100886.16
2023-05-22T10:56:15.050Z,100881.16
2023-05-22T11:01:30.551Z,100861.53
2023-05-22T11:06:47.437Z,100875.41
2023-05-22T11:11:40.708Z,100805.34
2023-05-22T11:16:34.443Z,100832.59
2023-05-22T11:21:29.644Z,100876.81
2023-05-22T11:26:27.838Z,100870.78
2023-05-22T11:31:29.823Z,100866.25
2023-05-22T11:36:25.629Z,100675.91
2023-05-22T11:41:22.089Z,100870.19
2023-05-22T11:46:16.492Z,100841.75
2023-05-22T11:51:12.243Z,100869.88
2023-05-22T11:56:05.953Z,100761.75
2023-05-22T12:01:05.611Z,100843.22
2023-05-22T12:06:02.382Z,100801.91
2023-05-22T12:10:57.208Z,100787.50
2023-05-22T12:15:49.811Z,100774.94
2023-05-22T12:20:49.281Z,100830.41
2023-05-22T12:25:41.644Z,100793.31
2023-05-22T12:30:49.316Z,100766.38
2023-05-22T12:35:41.932Z,100752.78
2023-05-22T12:40:34.870Z,100752.25
2023-05-22T12:45:27.811Z,100707.56
2023-05-22T12:50:24.662Z,100661.63
2023-05-22T12:55:19.310Z,100768.25
2023-05-22T13:00:15.353Z,100770.25
2023-05-22T13:05:08.148Z,100758.69
2023-05-22T13:10:00.469Z,100723.34
2023-05-22T13:14:53.818Z,100813.44
2023-05-22T13:19:47.976Z,100810.88
2023-05-22T13:24:41.601Z,100815.34
2023-05-22T13:29:34.242Z,100819.97
2023-05-22T13:34:28.264Z,100731.84
2023-05-22T13:39:21.591Z,100828.34
2023-05-22T13:44:16.574Z,100836.28
2023-05-22T13:49:10.468Z,100789.13
2023-05-22T13:54:03.953Z,100790.47
2023-05-22T13:58:58.755Z,100816.88
2023-05-22T14:03:51.870Z,100833.09
2023-05-22T14:08:45.101Z,100642.28
2023-05-22T14:13:37.375Z,100757.34
2023-05-22T14:18:32.170Z,100717.34
2023-05-22T14:23:27.741Z,100805.88
2023-05-22T14:28:22.638Z,100829.75
2023-05-22T14:33:15.661Z,100783.75
2023-05-22T14:38:12.078Z,100730.69
2023-05-22T14:43:04.807Z,100818.38
2023-05-22T14:48:00.500Z,100797.91
2023-05-22T14:53:06.130Z,100751.28
2023-05-22T14:57:59.500Z,100751.41
2023-05-22T15:02:53.902Z,100773.97
2023-05-22T15:07:48.394Z,100747.22
2023-05-22T15:12:44.669Z,100804.75
2023-05-22T15:17:40.769Z,100739.47
2023-05-22T15:22:34.838Z,100782.53
2023-05-22T15:27:36.634Z,100738.16
2023-05-22T15:32:34.360Z,100737.72
2023-05-22T15:37:30.920Z,100772.25
2023-05-22T15:42:24.796Z,100765.38
2023-05-22T15:47:17.051Z,100665.19
2023-05-22T15:52:09.720Z,100711.28
2023-05-22T15:57:05.260Z,100716.69
2023-05-22T16:01:58.173Z,100738.03
2023-05-22T16:06:52.374Z,100765.66
2023-05-22T16:11:44.568Z,100673.84
2023-05-22T16:16:37.363Z,100660.66
2023-05-22T16:21:32.034Z,100737.97
2023-05-22T16:26:29.328Z,100594.56
2023-05-22T16:31:21.757Z,100752.63
2023-05-22T16:36:15.154Z,100784.13
2023-05-22T16:41:07.562Z,100717.25
2023-05-22T16:46:02.208Z,100598.19
2023-05-22T16:50:55.033Z,100557.69
2023-05-22T16:55:50.231Z,100790.34
2023-05-22T17:00:42.565Z,100786.69
2023-05-22T17:05:36.018Z,100749.91
2023-05-22T17:10:33.966Z,100790.44
2023-05-22T17:15:28.327Z,100764.38
2023-05-22T17:20:24.175Z,100807.66
2023-05-22T17:25:17.379Z,100810.91
2023-05-22T17:30:12.548Z,100801.28
2023-05-22T17:35:07.765Z,100633.09
2023-05-22T17:40:05.069Z,100810.19
2023-05-22T17:44:57.679Z,100815.47
2023-05-22T17:49:50.157Z,100647.91
2023-05-22T17:54:43.352Z,100735.72
2023-05-22T17:59:37.347Z,100806.81
2023-05-22T18:04:33.626Z,100779.97
2023-05-22T18:09:26.768Z,100786.25
2023-05-22T18:14:25.512Z,100836.50
2023-05-22T18:19:17.955Z,100842.53
2023-05-22T18:24:14.388Z,100833.25
2023-05-22T18:29:06.544Z,100841.50
2023-05-22T18:33:59.201Z,100831.88
2023-05-22T18:38:52.179Z,100851.78
2023-05-22T18:43:46.102Z,100874.34
2023-05-22T18:48:46.895Z,100718.13
2023-05-22T18:53:48.561Z,100883.94
2023-05-22T18:58:44.178Z,100688.19
2023-05-22T19:03:39.361Z,100910.28
2023-05-22T19:08:33.750Z,100853.81
2023-05-22T19:13:26.422Z,100913.22
2023-05-22T19:18:19.507Z,100882.06
2023-05-22T19:23:13.886Z,100863.16
2023-05-22T19:28:07.114Z,100882.78
2023-05-22T19:32:59.716Z,100903.03
2023-05-22T19:37:52.233Z,100838.22
2023-05-22T19:42:46.454Z,100940.31
2023-05-22T19:47:38.622Z,100967.75
2023-05-22T19:52:33.594Z,100805.84
2023-05-22T19:57:28.792Z,100975.72
2023-05-22T20:02:23.230Z,100942.44
2023-05-22T20:07:16.181Z,100830.72
2023-05-22T20:12:11.781Z,100944.56
2023-05-22T20:17:04.204Z,100984.50
2023-05-22T20:21:58.360Z,100930.28
2023-05-22T20:26:50.356Z,100950.19
2023-05-22T20:31:43.555Z,100937.69
2023-05-22T20:36:36.619Z,100996.88
2023-05-22T20:41:29.111Z,100994.66
2023-05-22T20:46:24.411Z,100999.38
2023-05-22T20:51:20.851Z,101003.31
2023-05-22T20:56:13.261Z,100992.00
2023-05-22T21:01:06.128Z,101009.88
2023-05-22T21:05:58.081Z,101004.75
2023-05-22T21:10:51.102Z,100954.75
2023-05-22T21:15:44.033Z,101001.94
2023-05-22T21:20:36.435Z,100986.34
2023-05-22T21:25:29.034Z,100943.72
2023-05-22T21:30:20.972Z,101007.44
2023-05-22T21:35:13.096Z,100992.06
2023-05-22T21:40:06.360Z,100862.94
2023-05-22T21:44:58.200Z,101014.22
2023-05-22T21:49:52.513Z,101009.03
2023-05-22T21:54:44.392Z,101026.13
2023-05-22T21:59:36.462Z,101034.59
2023-05-22T22:04:28.325Z,101024.22
2023-05-22T22:09:20.394Z,100859.47
2023-05-22T22:14:12.252Z,101044.13
2023-05-22T22:19:05.432Z,100984.44
2023-05-22T22:23:59.155Z,101015.91
2023-05-22T22:28:51.832Z,101048.63
2023-05-22T22:33:43.849Z,101024.59
2023-05-22T22:38:38.755Z,100954.03
2023-05-22T22:43:32.151Z,101064.00
2023-05-22T22:48:24.610Z,101034.06
2023-05-22T22:53:16.633Z,101056.22
2023-05-22T22:58:10.445Z,101007.09
2023-05-22T23:03:02.920Z,101025.97
2023-05-22T23:07:58.574Z,101006.00
2023-05-22T23:12:50.664Z,101006.16
2023-05-22T23:17:45.386Z,101016.06
2023-05-22T23:22:37.484Z,101097.22
2023-05-22T23:27:31.573Z,101044.25
2023-05-22T23:32:23.564Z,101019.00
2023-05-22T23:37:15.509Z,100989.94
2023-05-22T23:42:10.121Z,101107.34
2023-05-22T23:47:03.640Z,101090.25
2023-05-22T23:51:55.691Z,101105.00
2023-05-22T23:56:48.467Z,101120.88
